Allenstown, New Hampshire
Current Conditions -  °F | °C
As of 7:51 PM on Monday 24 Nov 2014 (Local Time) from KCON Reporting Station
Clear Clear  
Wind Chill: 62°   Ceiling: Unl
Heat Index: 62°   Visibility: 10mi
Dew Point: 54°   Wind: 13mph
Humidity: 75%   Direction: 210°SSW
Pressure: 29.58"   Gusts: 25mph
Location:  43.1606°N, 71.4143°W
Report Text: KCON 250051Z AUTO 21011G22KT 10SM CLR 17/12 A2958 RMK AO2 SLP018 T01670122
Loading
Personal Weather Stations






























Interactive Weather Map New forecast layout! Learn more

10-Day Weather Forecast

Advertisements
Track Severe Weather on mobile